Time;durP1;ratioP1;P1;durP2;ratioP2;P2;SDS_P1;SDS_P2;PMS_P1;PMS_P2;Temp;Humidity;BMP_temperature;BMP_pressure;BME280_temperature;BME280_humidity;BME280_pressure;Samples;Min_cycle;Max_cycle;Signal;HPM_P1;HPM_P2
2021/06/30 00:00:46;;;;;;;6.30;1.20;;;;;;;25.50;40.22;99844.06;5132005;27;20428;-79
2021/06/30 00:03:29;;;;;;;4.97;1.30;;;;;;;25.42;40.74;99841.66;5111430;27;20712;-80
2021/06/30 00:06:17;;;;;;;7.10;1.30;;;;;;;25.37;40.71;99837.94;5070952;28;20399;-79
2021/06/30 00:08:57;;;;;;;6.47;1.60;;;;;;;25.30;40.72;99840.00;5091441;27;20722;-78
2021/06/30 00:11:41;;;;;;;8.10;1.30;;;;;;;25.32;40.97;99841.44;5111712;27;20384;-77
2021/06/30 00:14:23;;;;;;;5.65;1.50;;;;;;;25.13;41.05;99829.75;5071269;28;20395;-78
2021/06/30 00:17:09;;;;;;;5.00;1.20;;;;;;;25.13;40.50;99828.94;5071091;28;20409;-79
2021/06/30 00:19:49;;;;;;;6.55;1.48;;;;;;;25.17;40.75;99833.69;5071188;28;20394;-79
2021/06/30 00:27:37;;;;;;;6.38;1.15;;;;;;;25.36;40.09;99842.59;5118387;28;20418;-77
2021/06/30 00:30:18;;;;;;;8.63;1.40;;;;;;;25.35;40.61;99840.94;5071156;28;20401;-76
2021/06/30 00:33:02;;;;;;;8.18;1.15;;;;;;;25.30;40.37;99842.75;5110906;27;20402;-78
2021/06/30 00:35:46;;;;;;;8.38;1.60;;;;;;;25.23;41.09;99842.06;5070658;28;20386;-77
2021/06/30 00:38:25;;;;;;;9.27;1.38;;;;;;;25.17;41.09;99830.94;5071307;28;20395;-77
2021/06/30 00:41:09;;;;;;;5.53;1.10;;;;;;;25.13;41.07;99827.00;5070779;28;20397;-79
2021/06/30 00:43:54;;;;;;;4.65;1.40;;;;;;;25.11;41.76;99831.91;5071036;28;20891;-79
2021/06/30 00:46:38;;;;;;;7.18;1.63;;;;;;;25.08;41.61;99834.31;5070860;28;20395;-77
2021/06/30 00:49:23;;;;;;;5.97;1.30;;;;;;;25.02;41.93;99832.53;5071079;28;20873;-77
2021/06/30 00:52:02;;;;;;;6.47;1.38;;;;;;;25.00;42.00;99829.19;5071187;28;20386;-77
2021/06/30 00:54:46;;;;;;;6.03;1.10;;;;;;;24.97;42.08;99825.00;5111688;27;20384;-77
2021/06/30 00:57:28;;;;;;;4.22;1.20;;;;;;;25.02;42.17;99836.09;5100656;27;1566973;-80
2021/06/30 01:00:08;;;;;;;4.47;1.08;;;;;;;25.04;42.45;99833.09;5091362;27;20389;-77
2021/06/30 01:02:51;;;;;;;8.35;1.60;;;;;;;25.02;42.20;99833.38;5071013;28;20745;-79
2021/06/30 01:05:34;;;;;;;5.22;1.20;;;;;;;25.05;42.64;99840.28;5070062;28;20391;-79
2021/06/30 01:08:17;;;;;;;7.93;1.80;;;;;;;25.11;42.62;99840.16;5070821;28;20382;-78
2021/06/30 01:11:02;;;;;;;7.72;1.15;;;;;;;25.11;42.10;99840.16;5070752;28;20382;-79
2021/06/30 01:13:42;;;;;;;10.27;1.95;;;;;;;25.13;42.37;99832.50;5111779;27;20387;-77
2021/06/30 01:16:26;;;;;;;7.55;1.52;;;;;;;25.15;42.29;99835.00;5071091;28;20391;-75
2021/06/30 01:19:09;;;;;;;6.30;1.20;;;;;;;24.99;42.30;99833.84;5111306;27;20722;-79
2021/06/30 01:21:53;;;;;;;6.28;1.63;;;;;;;25.01;41.57;99828.94;5111660;27;20837;-78
2021/06/30 01:24:37;;;;;;;6.38;1.58;;;;;;;24.95;41.90;99831.81;5071053;28;20895;-77
2021/06/30 01:27:21;;;;;;;4.80;1.08;;;;;;;24.96;42.22;99831.56;5091257;27;20393;-78
2021/06/30 01:30:06;;;;;;;6.97;1.55;;;;;;;25.03;41.72;99837.78;5070823;28;20383;-79
2021/06/30 01:32:51;;;;;;;6.38;1.90;;;;;;;24.97;41.87;99833.25;5070856;28;20389;-77
2021/06/30 01:35:35;;;;;;;10.27;1.42;;;;;;;24.92;42.59;99827.63;5070869;28;20397;-78
2021/06/30 01:38:26;;;;;;;7.35;1.27;;;;;;;24.85;42.59;99837.91;5111359;27;20398;-79
2021/06/30 01:41:11;;;;;;;6.28;1.63;;;;;;;24.81;42.49;99842.22;5071076;28;20393;-79
2021/06/30 01:43:55;;;;;;;6.22;1.20;;;;;;;24.80;42.51;99826.81;5070869;28;20391;-77
2021/06/30 01:46:39;;;;;;;7.07;1.75;;;;;;;24.76;42.79;99830.25;5071115;28;20391;-80
2021/06/30 01:49:23;;;;;;;5.05;1.17;;;;;;;24.81;42.59;99835.91;5071043;28;20393;-78
2021/06/30 01:52:06;;;;;;;7.25;1.40;;;;;;;24.84;42.57;99836.22;5070900;28;20386;-79
2021/06/30 01:54:49;;;;;;;6.35;1.40;;;;;;;24.81;42.35;99839.47;5071171;28;20729;-78
2021/06/30 01:57:32;;;;;;;4.03;1.20;;;;;;;24.82;42.39;99829.31;5070340;28;20414;-79
2021/06/30 02:00:17;;;;;;;7.07;1.63;;;;;;;24.89;41.94;99836.34;5111449;27;20375;-79
2021/06/30 02:02:55;;;;;;;6.03;1.38;;;;;;;24.91;41.69;99822.41;5111868;27;20380;-78
2021/06/30 02:05:40;;;;;;;9.02;1.65;;;;;;;24.92;40.48;99827.63;5091107;27;20381;-79
2021/06/30 02:08:23;;;;;;;9.27;1.40;;;;;;;24.99;40.30;99833.84;5070806;28;20387;-78
2021/06/30 02:11:07;;;;;;;7.50;1.80;;;;;;;24.95;40.19;99829.06;5111276;27;20384;-78
2021/06/30 02:13:46;;;;;;;6.85;1.45;;;;;;;24.96;40.50;99837.06;5070945;28;20395;-78
2021/06/30 02:16:30;;;;;;;5.13;1.50;;;;;;;24.91;39.83;99825.16;5071076;28;20405;-79
2021/06/30 02:19:33;;;;;;;10.50;1.95;;;;;;;24.88;39.54;99829.22;5070472;28;20685;-78
2021/06/30 02:22:17;;;;;;;5.22;1.05;;;;;;;24.92;38.62;99835.88;5071080;28;20386;-76
2021/06/30 02:24:58;;;;;;;5.15;1.13;;;;;;;24.94;39.04;99839.22;5111703;27;20384;-77
2021/06/30 02:27:42;;;;;;;5.32;1.30;;;;;;;24.94;39.17;99843.88;5070771;28;20387;-79
2021/06/30 02:30:30;;;;;;;8.65;1.75;;;;;;;24.91;39.69;99844.38;5071108;28;20383;-78
2021/06/30 02:33:10;;;;;;;8.77;1.60;;;;;;;24.84;41.24;99844.47;5071267;28;20391;-77
2021/06/30 02:35:55;;;;;;;7.43;1.85;;;;;;;24.59;42.94;99841.09;5070779;28;20735;-77
2021/06/30 02:38:39;;;;;;;7.03;1.50;;;;;;;24.48;44.22;99861.13;5111682;27;20376;-78
2021/06/30 02:41:21;;;;;;;6.68;1.58;;;;;;;24.35;44.62;99842.13;5071242;28;20390;-79
2021/06/30 02:44:05;;;;;;;7.32;1.45;;;;;;;24.18;44.87;99849.38;5070877;28;20393;-79
2021/06/30 02:46:48;;;;;;;4.82;1.52;;;;;;;24.12;45.27;99848.41;5070915;28;20401;-78
2021/06/30 02:49:32;;;;;;;9.82;1.70;;;;;;;24.03;45.99;99843.47;5111399;27;20873;-77
2021/06/30 02:52:15;;;;;;;5.50;1.30;;;;;;;23.89;46.67;99840.94;5111428;27;20394;-79
2021/06/30 02:54:57;;;;;;;8.10;1.95;;;;;;;23.84;47.03;99846.28;5111833;27;20734;-79
2021/06/30 02:57:42;;;;;;;5.07;1.60;;;;;;;23.84;47.00;99851.78;5111725;27;20375;-79
2021/06/30 03:00:26;;;;;;;6.68;1.58;;;;;;;23.78;47.58;99838.13;5070843;28;20386;-79
2021/06/30 03:03:11;;;;;;;8.05;2.03;;;;;;;23.76;47.64;99848.50;5111298;27;20719;-79
2021/06/30 03:05:55;;;;;;;5.38;1.30;;;;;;;23.75;47.78;99850.41;5111665;27;20382;-79
2021/06/30 03:08:38;;;;;;;4.68;1.50;;;;;;;23.68;48.00;99848.81;5070790;28;20741;-79
2021/06/30 03:11:21;;;;;;;8.05;1.50;;;;;;;23.66;48.29;99854.53;5070543;28;20398;-79
2021/06/30 03:14:05;;;;;;;10.05;1.65;;;;;;;23.69;48.52;99861.47;5173945;27;20472;-78
2021/06/30 03:16:44;;;;;;;6.20;1.63;;;;;;;23.69;49.32;99859.56;5111699;27;20388;-77
2021/06/30 03:19:28;;;;;;;8.50;1.58;;;;;;;23.67;49.62;99864.44;5111139;27;20402;-78
2021/06/30 03:22:11;;;;;;;6.15;1.50;;;;;;;23.67;49.88;99863.59;5071150;28;20891;-78
2021/06/30 03:24:50;;;;;;;7.78;1.70;;;;;;;23.62;49.92;99869.78;5051923;28;20387;-79
2021/06/30 03:27:33;;;;;;;8.88;1.95;;;;;;;23.61;49.85;99854.41;5100168;27;1581445;-78
2021/06/30 03:30:16;;;;;;;6.95;1.50;;;;;;;23.52;50.25;99857.69;5070863;28;20393;-78
2021/06/30 03:32:59;;;;;;;7.80;1.60;;;;;;;23.40;50.25;99854.06;5070765;28;20390;-77
2021/06/30 03:35:41;;;;;;;8.63;2.17;;;;;;;23.27;50.53;99846.81;5070708;28;20899;-77
2021/06/30 03:38:24;;;;;;;12.27;2.10;;;;;;;23.13;50.65;99856.25;5111351;27;20383;-77
2021/06/30 03:41:04;;;;;;;7.93;1.90;;;;;;;23.16;50.81;99847.53;5051119;28;20399;-78
2021/06/30 03:43:47;;;;;;;6.25;1.77;;;;;;;23.19;50.90;99853.41;5070928;28;20386;-78
2021/06/30 03:46:30;;;;;;;9.52;2.10;;;;;;;23.19;51.13;99855.31;5111372;27;20376;-78
2021/06/30 03:49:13;;;;;;;6.18;1.58;;;;;;;23.27;50.94;99855.00;5070902;28;20397;-79
2021/06/30 03:51:56;;;;;;;8.93;1.95;;;;;;;23.39;50.59;99857.84;5071194;28;20884;-79
2021/06/30 03:54:40;;;;;;;12.55;2.05;;;;;;;23.36;50.92;99852.81;5111430;27;20376;-79
2021/06/30 03:57:20;;;;;;;5.75;1.80;;;;;;;23.50;50.55;99854.34;5111716;27;20390;-79
2021/06/30 04:00:06;;;;;;;9.05;1.88;;;;;;;23.57;50.47;99861.41;5071146;28;20387;-79
2021/06/30 04:02:57;;;;;;;7.55;1.65;;;;;;;23.63;50.22;99854.16;5071051;28;20393;-79
2021/06/30 04:05:41;;;;;;;7.20;1.80;;;;;;;23.80;49.65;99856.03;5110496;27;20402;-79
2021/06/30 04:08:20;;;;;;;10.15;2.40;;;;;;;23.65;49.66;99855.59;5071295;28;20402;-78
2021/06/30 04:11:04;;;;;;;9.27;1.80;;;;;;;23.70;48.59;99847.53;5070939;28;20899;-79
2021/06/30 04:13:44;;;;;;;7.65;1.83;;;;;;;23.71;48.32;99857.44;5071311;28;20391;-79
2021/06/30 04:16:24;;;;;;;9.40;2.30;;;;;;;24.00;47.63;99854.94;5071259;28;20885;-78
2021/06/30 04:19:04;;;;;;;8.13;2.00;;;;;;;24.31;48.10;99855.50;5111634;27;20738;-79
2021/06/30 04:21:44;;;;;;;8.00;1.85;;;;;;;24.84;46.72;99860.09;5063794;28;20403;-77
2021/06/30 04:24:24;;;;;;;13.55;2.65;;;;;;;25.11;45.79;99853.88;5070816;28;20394;-79
2021/06/30 04:27:07;;;;;;;7.85;1.80;;;;;;;25.36;44.53;99859.09;5070926;28;20394;-78
2021/06/30 04:29:46;;;;;;;5.20;1.42;;;;;;;25.81;43.60;99859.22;5111665;27;20376;-78
2021/06/30 04:32:30;;;;;;;10.52;2.42;;;;;;;26.12;42.77;99849.66;5090847;28;20381;-79
2021/06/30 04:35:26;;;;;;;11.27;2.15;;;;;;;26.41;41.54;99852.13;5070619;28;20390;-77
2021/06/30 04:38:10;;;;;;;6.60;1.83;;;;;;;26.62;40.80;99841.41;5111183;27;20379;-78
2021/06/30 04:40:55;;;;;;;7.13;1.80;;;;;;;27.27;39.90;99845.16;5110782;27;20393;-79
2021/06/30 04:43:39;;;;;;;8.95;1.85;;;;;;;27.91;38.50;99834.38;5070863;28;20378;-77
2021/06/30 04:46:23;;;;;;;13.73;2.15;;;;;;;28.05;38.26;99847.53;5070574;28;20729;-79
2021/06/30 04:49:06;;;;;;;11.40;2.08;;;;;;;28.14;37.40;99842.38;5070582;28;20885;-79
2021/06/30 04:51:49;;;;;;;8.32;1.80;;;;;;;28.07;36.59;99845.31;5111039;27;20384;-77
2021/06/30 04:54:32;;;;;;;5.97;1.42;;;;;;;28.05;34.53;99836.47;5070807;28;20391;-79
2021/06/30 04:57:14;;;;;;;9.30;4.35;;;;;;;28.26;34.69;99840.28;5101993;27;1516154;-78
2021/06/30 04:59:57;;;;;;;36.97;33.00;;;;;;;28.38;33.65;99846.47;5069347;28;20753;-79
2021/06/30 05:03:11;;;;;;;6.50;3.17;;;;;;;28.80;32.22;99841.84;5103454;27;1480279;-79
2021/06/30 05:05:56;;;;;;;9.52;3.13;;;;;;;29.56;32.77;99837.59;5111464;27;20387;-80
2021/06/30 05:08:36;;;;;;;8.75;1.70;;;;;;;30.52;31.91;99840.56;5111713;27;20415;-78
2021/06/30 05:11:16;;;;;;;7.78;1.85;;;;;;;31.28;31.18;99844.06;5071273;28;20395;-77
2021/06/30 05:13:59;;;;;;;6.80;1.45;;;;;;;31.93;32.01;99847.69;5111470;27;20384;-79
2021/06/30 05:16:42;;;;;;;8.75;2.42;;;;;;;32.50;31.35;99833.97;5090398;28;20389;-78
2021/06/30 05:19:26;;;;;;;11.80;1.98;;;;;;;33.51;29.95;99837.69;5071198;28;20394;-79
2021/06/30 05:22:40;;;;;;;11.25;1.95;;;;;;;34.58;28.54;99833.13;5102687;27;1501987;-79
2021/06/30 05:25:25;;;;;;;10.48;2.33;;;;;;;35.40;27.93;99836.91;5071182;28;20713;-78
2021/06/30 05:28:23;;;;;;;11.07;1.75;;;;;;;36.44;26.89;99829.22;5070635;28;20389;-80
2021/06/30 05:31:07;;;;;;;14.00;2.40;;;;;;;37.34;26.39;99835.56;5071623;28;20387;-79
2021/06/30 05:33:52;;;;;;;20.17;2.13;;;;;;;38.16;26.13;99830.00;5080454;27;20740;-80
2021/06/30 05:36:32;;;;;;;14.10;2.08;;;;;;;39.46;24.16;99835.06;5111826;27;20892;-80
2021/06/30 05:39:12;;;;;;;10.85;1.75;;;;;;;41.15;22.39;99838.00;5071314;28;20391;-78
2021/06/30 05:41:51;;;;;;;11.95;2.05;;;;;;;42.27;20.95;99826.00;5111830;27;20403;-79
2021/06/30 05:44:31;;;;;;;8.65;2.05;;;;;;;42.74;19.96;99830.63;5111827;27;20380;-79
2021/06/30 05:47:15;;;;;;;9.05;1.63;;;;;;;43.68;18.64;99829.88;5111735;27;20392;-76
2021/06/30 05:49:56;;;;;;;5.32;1.58;;;;;;;45.10;18.15;99840.25;5111832;27;20399;-78
2021/06/30 05:52:41;;;;;;;7.80;1.67;;;;;;;45.50;16.79;99840.59;5070262;28;20893;-79
2021/06/30 05:55:24;;;;;;;5.45;1.40;;;;;;;45.00;16.42;99836.03;5070895;28;20878;-80
2021/06/30 05:58:07;;;;;;;4.68;1.70;;;;;;;44.91;15.48;99843.97;5066543;28;20414;-80
2021/06/30 06:00:46;;;;;;;6.95;1.60;;;;;;;43.60;16.65;99845.03;5059384;28;20406;-78
2021/06/30 06:03:26;;;;;;;8.02;1.35;;;;;;;42.27;17.57;99849.38;5111335;27;20384;-80
2021/06/30 06:06:10;;;;;;;6.38;1.60;;;;;;;42.77;17.32;99834.72;5070824;28;20391;-79
2021/06/30 06:08:53;;;;;;;5.05;1.58;;;;;;;42.35;17.29;99839.94;5071029;28;20387;-79
2021/06/30 06:11:34;;;;;;;6.93;1.60;;;;;;;43.92;16.18;99847.47;5071200;28;20395;-80
2021/06/30 06:14:13;;;;;;;8.02;1.40;;;;;;;43.29;16.81;99840.19;5071195;28;20394;-80
2021/06/30 06:16:57;;;;;;;6.53;1.50;;;;;;;44.44;15.88;99857.53;5071175;28;20401;-81
2021/06/30 06:19:42;;;;;;;5.15;1.42;;;;;;;44.26;16.11;99847.81;5070811;28;20383;-82
2021/06/30 06:22:25;;;;;;;10.30;1.40;;;;;;;44.02;17.06;99848.06;5090604;27;1492977;-81
2021/06/30 06:25:07;;;;;;;4.40;1.38;;;;;;;44.50;16.61;99856.06;5111681;27;20904;-79
2021/06/30 06:27:50;;;;;;;3.25;0.90;;;;;;;44.49;15.33;99845.94;5111363;27;20388;-80
2021/06/30 06:30:35;;;;;;;6.30;1.30;;;;;;;43.45;16.21;99849.53;5071145;28;20393;-79
2021/06/30 06:33:19;;;;;;;5.32;1.20;;;;;;;42.33;16.79;99847.97;5071188;28;20386;-81
2021/06/30 06:36:08;;;;;;;4.97;1.17;;;;;;;41.36;17.19;99866.94;5111491;27;20376;-81
2021/06/30 06:38:52;;;;;;;4.90;1.25;;;;;;;41.60;17.35;99858.50;5132001;27;20493;-78
2021/06/30 06:41:37;;;;;;;7.53;1.60;;;;;;;42.15;17.12;99863.53;5095872;27;20387;-80
2021/06/30 06:44:22;;;;;;;5.63;1.38;;;;;;;42.69;16.54;99858.31;5070960;28;20903;-83
2021/06/30 06:47:05;;;;;;;4.07;1.20;;;;;;;41.74;17.74;99869.44;5173333;27;20710;-80
2021/06/30 06:49:49;;;;;;;6.07;1.50;;;;;;;42.26;17.89;99875.16;5111179;27;20878;-79
2021/06/30 06:52:32;;;;;;;7.40;1.80;;;;;;;42.96;17.36;99873.63;5070191;28;20394;-80
2021/06/30 06:55:11;;;;;;;7.68;1.65;;;;;;;44.66;15.87;99870.16;5070642;28;20397;-80
2021/06/30 06:57:59;;;;;;;9.35;1.42;;;;;;;42.92;17.09;99864.22;5110857;27;20129;-79
2021/06/30 07:00:43;;;;;;;5.13;1.73;;;;;;;44.46;16.18;99869.28;5070308;28;20393;-81
2021/06/30 07:03:26;;;;;;;6.68;1.48;;;;;;;44.47;15.90;99859.66;5070474;28;20393;-79
2021/06/30 07:06:09;;;;;;;4.90;1.35;;;;;;;43.93;16.36;99871.72;5070346;28;20382;-80
2021/06/30 07:08:53;;;;;;;5.00;1.20;;;;;;;45.29;15.83;99864.91;5069337;28;20387;-83
2021/06/30 07:11:39;;;;;;;8.63;1.50;;;;;;;45.78;14.91;99882.78;5068240;28;20414;-79
2021/06/30 07:14:18;;;;;;;6.43;1.20;;;;;;;47.48;14.24;99874.47;5110482;27;20880;-80
2021/06/30 07:17:02;;;;;;;4.78;1.30;;;;;;;48.55;13.28;99865.44;5070174;28;20690;-80
2021/06/30 07:19:47;;;;;;;6.55;1.27;;;;;;;48.98;13.53;99877.81;5069865;28;20386;-79
2021/06/30 07:22:30;;;;;;;9.25;1.95;;;;;;;47.97;13.88;99868.34;5070305;28;20390;-80
2021/06/30 07:25:18;;;;;;;8.20;1.70;;;;;;;48.52;13.47;99881.31;5110919;27;20383;-80
2021/06/30 07:28:03;;;;;;;4.03;1.20;;;;;;;48.43;13.39;99886.53;5111005;27;20389;-80
2021/06/30 07:30:43;;;;;;;6.30;1.50;;;;;;;46.80;14.69;99881.44;5070381;28;20393;-80
2021/06/30 07:33:27;;;;;;;8.27;1.20;;;;;;;47.60;13.96;99877.84;5069363;28;20896;-80
2021/06/30 07:36:07;;;;;;;10.05;1.50;;;;;;;46.51;13.98;99887.16;5070303;28;20425;-80
2021/06/30 07:38:49;;;;;;;6.25;1.15;;;;;;;45.79;14.59;99882.41;5070331;28;20402;-79
2021/06/30 07:41:33;;;;;;;8.43;1.50;;;;;;;46.85;13.92;99878.25;5070090;28;20389;-79
2021/06/30 07:44:17;;;;;;;7.35;1.83;;;;;;;45.18;14.88;99874.03;5110587;27;20388;-80
2021/06/30 07:46:56;;;;;;;17.15;1.42;;;;;;;43.53;15.47;99885.25;5069594;28;20394;-78
2021/06/30 07:49:37;;;;;;;4.80;1.20;;;;;;;40.28;17.91;99893.47;5069896;28;20397;-80
2021/06/30 07:52:20;;;;;;;4.97;1.10;;;;;;;41.56;17.43;99885.75;5070327;28;20390;-79
2021/06/30 07:55:03;;;;;;;6.93;1.40;;;;;;;42.24;16.57;99883.97;5070108;28;20394;-80
2021/06/30 07:57:44;;;;;;;4.70;1.15;;;;;;;43.93;15.52;99882.22;5069853;28;20399;-80
2021/06/30 08:00:28;;;;;;;4.55;1.00;;;;;;;46.76;13.89;99886.28;5070212;28;20383;-80
2021/06/30 08:03:12;;;;;;;6.88;1.23;;;;;;;47.30;13.55;99879.97;5172562;27;20714;-79
2021/06/30 08:05:57;;;;;;;7.38;1.20;;;;;;;47.72;13.49;99870.19;5068684;28;20394;-79
2021/06/30 08:08:41;;;;;;;6.15;1.10;;;;;;;47.57;13.30;99883.47;5110730;27;20734;-81
2021/06/30 08:11:25;;;;;;;5.25;0.93;;;;;;;46.18;14.05;99885.03;5048495;28;20399;-79
2021/06/30 08:14:08;;;;;;;4.53;1.05;;;;;;;43.50;15.65;99876.69;5070293;28;20393;-80
2021/06/30 08:16:48;;;;;;;9.20;1.20;;;;;;;40.43;17.57;99878.78;5051068;28;20396;-79
2021/06/30 08:19:31;;;;;;;9.68;1.30;;;;;;;36.12;20.77;99888.19;5131223;27;20382;-80
2021/06/30 08:22:14;;;;;;;8.40;1.15;;;;;;;35.14;22.51;99883.19;5070233;28;20390;-78
2021/06/30 08:24:58;;;;;;;6.85;1.23;;;;;;;33.48;24.52;99888.41;5110705;27;20384;-80
2021/06/30 08:27:38;;;;;;;7.03;1.27;;;;;;;33.65;24.16;99877.66;5110633;27;20384;-80
2021/06/30 08:30:22;;;;;;;4.85;1.38;;;;;;;32.52;25.75;99887.34;5110837;27;20384;-81
2021/06/30 08:33:07;;;;;;;5.68;1.70;;;;;;;32.46;25.85;99880.16;5070020;28;20382;-79
2021/06/30 08:35:51;;;;;;;8.95;1.15;;;;;;;31.80;26.15;99878.88;5069684;28;20394;-80
2021/06/30 08:38:34;;;;;;;6.38;1.35;;;;;;;32.09;26.33;99877.09;5070080;28;20387;-81
2021/06/30 08:41:21;;;;;;;6.57;1.30;;;;;;;32.02;26.39;99882.13;5109693;27;20386;-80
2021/06/30 08:44:05;;;;;;;4.43;1.30;;;;;;;31.86;26.68;99878.56;5069556;28;20873;-81
2021/06/30 08:46:51;;;;;;;5.18;1.20;;;;;;;32.38;26.53;99875.22;5110709;27;20383;-79
2021/06/30 08:49:39;;;;;;;6.25;1.42;;;;;;;32.41;25.90;99873.81;5069911;28;20397;-80
2021/06/30 08:52:20;;;;;;;6.72;1.48;;;;;;;31.68;26.02;99867.28;5110843;27;20391;-80
2021/06/30 08:55:06;;;;;;;7.05;1.10;;;;;;;31.45;26.83;99877.88;5109945;27;20398;-79
2021/06/30 08:57:50;;;;;;;7.25;1.20;;;;;;;31.64;26.48;99869.78;5069874;28;20395;-80
2021/06/30 09:00:34;;;;;;;5.50;1.17;;;;;;;31.80;25.82;99874.13;5110448;27;20380;-79
2021/06/30 09:03:20;;;;;;;10.15;1.58;;;;;;;31.60;27.47;99862.31;5069330;28;20756;-80
2021/06/30 09:06:12;;;;;;;6.82;1.33;;;;;;;31.31;27.74;99871.25;5069564;28;20737;-80
2021/06/30 09:09:03;;;;;;;4.50;1.17;;;;;;;31.21;27.13;99865.72;5069181;28;20421;-80
2021/06/30 09:12:00;;;;;;;7.18;1.30;;;;;;;31.30;27.13;99883.47;5070055;28;20417;-80
2021/06/30 09:14:44;;;;;;;6.00;1.15;;;;;;;31.23;26.84;99863.50;5110597;27;20139;-80
2021/06/30 09:17:29;;;;;;;8.30;1.38;;;;;;;31.31;27.25;99881.50;5070130;28;20397;-81
2021/06/30 09:20:12;;;;;;;5.03;1.25;;;;;;;31.40;27.06;99875.13;5070089;28;20405;-77
2021/06/30 09:22:57;;;;;;;5.70;1.25;;;;;;;31.24;26.84;99869.88;5069240;28;20397;-78
2021/06/30 09:25:43;;;;;;;4.15;1.05;;;;;;;31.39;26.92;99876.22;5110839;27;20390;-77
2021/06/30 09:28:27;;;;;;;11.80;1.85;;;;;;;31.32;26.95;99877.63;5070153;28;20398;-78
2021/06/30 09:31:10;;;;;;;11.85;1.40;;;;;;;30.81;27.60;99880.47;5069189;28;20574;-80
2021/06/30 09:33:56;;;;;;;6.40;1.50;;;;;;;30.83;27.48;99858.88;5069928;28;20737;-79
2021/06/30 09:37:05;;;;;;;5.50;0.98;;;;;;;31.43;27.28;99868.19;5110526;27;20384;-78
2021/06/30 09:39:54;;;;;;;6.28;1.35;;;;;;;31.91;26.60;99863.81;5070204;28;20387;-78
2021/06/30 09:42:38;;;;;;;6.30;1.50;;;;;;;31.50;26.74;99877.88;5070105;28;20380;-80
2021/06/30 09:45:21;;;;;;;13.00;1.40;;;;;;;31.24;27.08;99867.94;5070287;28;20389;-78
2021/06/30 09:48:00;;;;;;;6.07;1.30;;;;;;;31.19;27.19;99872.69;5110814;27;20394;-78
2021/06/30 09:50:44;;;;;;;4.82;0.95;;;;;;;31.31;27.44;99865.72;5069849;28;20389;-78
2021/06/30 09:53:38;;;;;;;4.70;1.20;;;;;;;31.43;26.97;99874.53;5110556;27;20380;-78
2021/06/30 09:56:32;;;;;;;6.13;1.52;;;;;;;31.24;27.34;99867.94;5070153;28;20401;-78
2021/06/30 09:59:22;;;;;;;8.57;1.10;;;;;;;30.94;27.45;99867.19;5070293;28;20387;-78
2021/06/30 10:02:08;;;;;;;7.03;1.67;;;;;;;30.61;27.62;99865.81;5131167;27;20127;-80
2021/06/30 10:05:00;;;;;;;4.50;1.15;;;;;;;30.46;27.09;99863.88;5069978;28;20137;-79
2021/06/30 10:07:43;;;;;;;6.20;1.02;;;;;;;30.35;27.22;99869.66;5110754;27;20380;-78
2021/06/30 10:10:26;;;;;;;3.70;1.25;;;;;;;30.46;27.12;99866.63;5070024;28;20749;-77
2021/06/30 10:13:10;;;;;;;6.55;1.08;;;;;;;30.50;27.54;99861.34;5070068;28;20880;-78
2021/06/30 10:15:54;;;;;;;3.35;0.95;;;;;;;30.31;27.76;99860.22;5110634;27;20380;-78
2021/06/30 10:18:33;;;;;;;5.40;1.00;;;;;;;30.41;27.86;99858.31;5110829;27;20376;-80
2021/06/30 10:21:15;;;;;;;5.57;1.20;;;;;;;30.45;28.03;99861.34;5070467;28;20405;-80
2021/06/30 10:23:52;;;;;;;10.80;1.45;;;;;;;30.73;27.89;99863.56;5070490;28;20391;-80
2021/06/30 10:26:36;;;;;;;9.13;1.35;;;;;;;30.50;27.91;99858.59;5110624;27;20380;-78
2021/06/30 10:29:27;;;;;;;4.03;1.15;;;;;;;30.23;28.17;99865.19;5070243;28;20397;-78
2021/06/30 10:32:13;;;;;;;4.63;1.13;;;;;;;30.34;28.09;99870.75;5070198;28;20387;-79
2021/06/30 10:35:04;;;;;;;5.82;1.02;;;;;;;30.41;28.13;99865.78;5066726;28;20385;-78
2021/06/30 10:37:53;;;;;;;4.38;1.00;;;;;;;30.42;28.02;99865.50;5110544;27;20380;-80
2021/06/30 10:40:55;;;;;;;6.97;1.08;;;;;;;30.39;27.40;99868.84;5110550;27;20383;-79
2021/06/30 10:44:12;;;;;;;7.55;1.58;;;;;;;30.47;26.60;99871.06;5090329;27;20389;-80
2021/06/30 10:46:56;;;;;;;4.53;1.00;;;;;;;30.13;27.62;99858.78;5069963;28;20392;-80
2021/06/30 10:49:40;;;;;;;6.00;1.45;;;;;;;30.40;27.41;99859.41;5069990;28;20390;-79
2021/06/30 10:52:24;;;;;;;6.35;1.27;;;;;;;30.39;27.80;99873.56;5070239;28;20387;-80
2021/06/30 10:55:31;;;;;;;4.72;1.50;;;;;;;30.04;27.92;99869.59;5070198;28;20386;-80
2021/06/30 10:58:24;;;;;;;10.13;1.83;;;;;;;30.17;28.39;99852.44;5110870;27;20376;-80
2021/06/30 11:01:11;;;;;;;6.78;1.08;;;;;;;30.47;28.47;99867.47;5110833;27;20388;-80
2021/06/30 11:04:01;;;;;;;5.15;1.00;;;;;;;30.70;27.81;99859.41;5131150;27;20118;-79
2021/06/30 11:06:46;;;;;;;6.07;1.73;;;;;;;30.91;27.35;99853.91;5069554;28;20394;-78
2021/06/30 11:09:30;;;;;;;5.78;1.08;;;;;;;30.98;26.83;99865.53;5110746;27;20384;-80
2021/06/30 11:12:11;;;;;;;5.88;1.10;;;;;;;30.94;26.77;99854.16;5070684;28;20885;-78
2021/06/30 11:14:55;;;;;;;8.35;1.30;;;;;;;30.76;26.46;99852.75;5070247;28;20401;-80
2021/06/30 11:17:40;;;;;;;4.90;0.70;;;;;;;30.87;25.59;99848.03;5070324;28;20401;-79
2021/06/30 11:20:48;;;;;;;2.10;0.52;;;;;;;30.88;25.64;99846.94;5101204;27;1538317;-79
2021/06/30 11:23:40;;;;;;;4.38;0.70;;;;;;;30.48;25.31;99839.47;5070297;28;20393;-79
2021/06/30 11:26:37;;;;;;;6.15;0.95;;;;;;;30.31;26.34;99844.44;5070236;28;20723;-79
2021/06/30 11:29:39;;;;;;;8.60;0.80;;;;;;;30.07;24.47;99833.03;5070343;28;20130;-79
2021/06/30 11:32:49;;;;;;;6.10;0.95;;;;;;;30.07;25.78;99830.25;5066652;28;20417;-80
2021/06/30 11:35:34;;;;;;;5.35;1.00;;;;;;;30.00;25.61;99824.16;5109479;27;20394;-80
2021/06/30 11:38:23;;;;;;;3.50;0.77;;;;;;;30.00;23.96;99828.88;5069158;28;20389;-79
2021/06/30 11:41:13;;;;;;;4.45;0.73;;;;;;;29.98;24.35;99826.38;5109988;27;20834;-79
2021/06/30 11:43:58;;;;;;;4.82;0.90;;;;;;;30.30;24.75;99828.91;5109979;27;20391;-79
2021/06/30 11:46:42;;;;;;;5.03;1.00;;;;;;;30.44;24.97;99809.84;5069715;28;20727;-79
2021/06/30 11:49:26;;;;;;;6.28;1.08;;;;;;;30.27;25.04;99827.53;5070212;28;20723;-79
2021/06/30 11:52:13;;;;;;;7.43;0.80;;;;;;;30.20;24.89;99828.91;5109217;27;20387;-79
2021/06/30 11:55:00;;;;;;;6.30;0.80;;;;;;;30.03;23.84;99820.84;5110684;27;20121;-80
2021/06/30 11:57:57;;;;;;;4.78;0.60;;;;;;;30.01;24.56;99812.00;5070534;28;20149;-78
2021/06/30 12:00:43;;;;;;;5.15;0.98;;;;;;;30.06;24.12;99817.53;5110514;27;20904;-79
2021/06/30 12:03:26;;;;;;;5.13;0.70;;;;;;;30.09;24.36;99794.84;5070148;28;20397;-79
2021/06/30 12:06:26;;;;;;;4.93;0.98;;;;;;;30.00;24.29;99796.50;5070201;28;20397;-79
2021/06/30 12:09:08;;;;;;;4.30;0.82;;;;;;;29.89;24.12;99786.53;5070463;28;20402;-78
2021/06/30 12:11:58;;;;;;;4.47;0.80;;;;;;;29.65;24.04;99788.91;5111036;27;20380;-79
2021/06/30 12:14:49;;;;;;;6.68;0.80;;;;;;;29.84;24.20;99786.50;5193868;27;20376;-79
2021/06/30 12:17:35;;;;;;;4.03;0.70;;;;;;;29.92;25.15;99794.28;5173096;27;20324;-80
2021/06/30 12:20:22;;;;;;;5.32;0.77;;;;;;;30.08;25.85;99778.50;5110877;27;20380;-79
2021/06/30 12:23:07;;;;;;;3.33;0.60;;;;;;;30.23;24.79;99793.19;5131460;27;20692;-79
2021/06/30 12:26:09;;;;;;;4.53;0.82;;;;;;;30.12;24.66;99788.75;5070275;28;20387;-79
2021/06/30 12:28:53;;;;;;;6.75;0.88;;;;;;;30.05;24.58;99782.66;5110733;27;20384;-80
2021/06/30 12:31:36;;;;;;;7.53;0.93;;;;;;;30.01;24.75;99766.88;5064643;28;20401;-79
2021/06/30 12:34:17;;;;;;;10.15;0.90;;;;;;;30.25;24.64;99771.59;5110595;27;20395;-80
2021/06/30 12:36:58;;;;;;;6.43;0.90;;;;;;;30.34;24.81;99771.03;5067161;28;20431;-80
2021/06/30 12:39:42;;;;;;;3.83;0.60;;;;;;;30.10;24.17;99760.50;5069981;28;20392;-80
2021/06/30 12:42:22;;;;;;;3.85;0.70;;;;;;;30.11;24.81;99767.72;5068529;28;20390;-79
2021/06/30 12:45:07;;;;;;;4.68;0.77;;;;;;;30.20;24.39;99762.44;5110889;27;20458;-80
2021/06/30 12:47:54;;;;;;;4.28;0.68;;;;;;;30.11;25.06;99767.72;5069994;28;20395;-80
2021/06/30 12:50:40;;;;;;;6.00;0.70;;;;;;;30.13;24.70;99759.13;5070277;28;20397;-79
2021/06/30 12:53:36;;;;;;;5.50;0.75;;;;;;;29.96;24.98;99756.63;5110721;27;20380;-80
2021/06/30 12:56:33;;;;;;;4.00;0.70;;;;;;;30.01;24.64;99762.19;5070482;28;20385;-79
2021/06/30 12:59:18;;;;;;;3.90;0.88;;;;;;;29.96;24.59;99753.03;5110631;27;20133;-79